Time;durP1;ratioP1;P1;durP2;ratioP2;P2;SDS_P1;SDS_P2;PMS_P1;PMS_P2;Temp;Humidity;BMP_temperature;BMP_pressure;BME280_temperature;BME280_humidity;BME280_pressure;Samples;Min_cycle;Max_cycle;Signal;HPM_P1;HPM_P2
2022/04/24 00:01:34;;;;;;;13.07;11.82;;;;;;;;;;5026133;28;20049;-82
2022/04/24 00:04:00;;;;;;;12.20;11.07;;;;;;;;;;5029892;28;20047;-83
2022/04/24 00:06:26;;;;;;;11.80;10.60;;;;;;;;;;5022018;28;20073;-82
2022/04/24 00:08:53;;;;;;;12.07;10.65;;;;;;;;;;5029417;28;20037;-82
2022/04/24 00:11:19;;;;;;;12.23;11.13;;;;;;;;;;5029507;28;20580;-82
2022/04/24 00:13:45;;;;;;;12.07;10.88;;;;;;;;;;5030028;28;20034;-83
2022/04/24 00:16:11;;;;;;;11.52;10.43;;;;;;;;;;5010293;28;20064;-83
2022/04/24 00:18:38;;;;;;;10.27;9.13;;;;;;;;;;5007382;28;20456;-83
2022/04/24 00:21:07;;;;;;;10.60;9.50;;;;;;;;;;5027519;28;20128;-83
2022/04/24 00:23:33;;;;;;;10.90;9.90;;;;;;;;;;5027107;28;20515;-83
2022/04/24 00:26:00;;;;;;;10.80;9.75;;;;;;;;;;5026182;28;20045;-82
2022/04/24 00:28:26;;;;;;;11.77;9.98;;;;;;;;;;5025501;28;20037;-82
2022/04/24 00:30:52;;;;;;;11.23;9.70;;;;;;;;;;5023673;28;20038;-82
2022/04/24 00:33:18;;;;;;;10.52;9.52;;;;;;;;;;5004891;28;20051;-83
2022/04/24 00:35:44;;;;;;;10.38;9.38;;;;;;;;;;5003581;28;20064;-82
2022/04/24 00:38:10;;;;;;;11.10;9.93;;;;;;;;;;5007591;28;20049;-82
2022/04/24 00:40:36;;;;;;;9.35;8.45;;;;;;;;;;5026688;28;20041;-82
2022/04/24 00:43:02;;;;;;;10.90;8.88;;;;;;;;;;5012062;28;20102;-83
2022/04/24 00:45:28;;;;;;;10.65;9.65;;;;;;;;;;5024533;28;20485;-82
2022/04/24 00:47:54;;;;;;;10.10;9.10;;;;;;;;;;5020878;28;20050;-82
2022/04/24 00:50:20;;;;;;;10.00;9.10;;;;;;;;;;5006906;28;20072;-82
2022/04/24 00:52:49;;;;;;;9.52;8.52;;;;;;;;;;5027806;28;20072;-82
2022/04/24 00:55:16;;;;;;;9.15;8.27;;;;;;;;;;5003787;28;20049;-83
2022/04/24 00:57:42;;;;;;;9.63;8.63;;;;;;;;;;5004132;28;20053;-82
2022/04/24 01:00:09;;;;;;;9.50;8.60;;;;;;;;;;5007458;28;20053;-84
2022/04/24 01:02:35;;;;;;;10.18;8.73;;;;;;;;;;5007019;28;20072;-83
2022/04/24 01:05:02;;;;;;;9.90;8.93;;;;;;;;;;5012055;28;20069;-84
2022/04/24 01:07:28;;;;;;;8.57;7.68;;;;;;;;;;5008064;28;20501;-82
2022/04/24 01:09:54;;;;;;;9.15;8.25;;;;;;;;;;5011571;28;20060;-82
2022/04/24 01:12:20;;;;;;;9.07;8.18;;;;;;;;;;5008155;28;20045;-82
2022/04/24 01:14:46;;;;;;;8.98;8.07;;;;;;;;;;5028237;28;20045;-83
2022/04/24 01:17:12;;;;;;;9.48;8.00;;;;;;;;;;5005864;28;20144;-83
2022/04/24 01:19:38;;;;;;;9.15;8.25;;;;;;;;;;5028337;28;20501;-83
2022/04/24 01:22:05;;;;;;;9.18;8.27;;;;;;;;;;5024290;28;20076;-83
2022/04/24 01:24:31;;;;;;;8.63;7.75;;;;;;;;;;5032537;28;20085;-82
2022/04/24 01:26:57;;;;;;;9.10;8.20;;;;;;;;;;5031008;28;20092;-83
2022/04/24 01:29:23;;;;;;;8.80;8.00;;;;;;;;;;5029471;28;20052;-81
2022/04/24 01:31:49;;;;;;;9.10;8.10;;;;;;;;;;5010452;28;20124;-82
2022/04/24 01:34:16;;;;;;;10.30;8.38;;;;;;;;;;5022809;28;20064;-82
2022/04/24 01:36:42;;;;;;;9.23;7.70;;;;;;;;;;5031397;28;20412;-83
2022/04/24 01:39:08;;;;;;;8.50;7.63;;;;;;;;;;5012446;28;20041;-83
2022/04/24 01:41:35;;;;;;;8.77;7.88;;;;;;;;;;5025842;28;20087;-82
2022/04/24 01:44:01;;;;;;;8.50;7.70;;;;;;;;;;5029492;28;20389;-82
2022/04/24 01:46:27;;;;;;;9.68;7.72;;;;;;;;;;5028210;28;20091;-82
2022/04/24 01:48:53;;;;;;;8.45;7.65;;;;;;;;;;5012743;28;20382;-82
2022/04/24 01:51:19;;;;;;;8.38;7.57;;;;;;;;;;5028305;28;20104;-82
2022/04/24 01:53:45;;;;;;;8.48;7.68;;;;;;;;;;5014370;28;20064;-83
2022/04/24 01:56:12;;;;;;;8.40;7.60;;;;;;;;;;5029784;28;20483;-82
2022/04/24 01:58:39;;;;;;;9.05;7.72;;;;;;;;;;5026929;28;20485;-81
2022/04/24 02:01:06;;;;;;;8.40;7.60;;;;;;;;;;5024362;28;20048;-82
2022/04/24 02:03:33;;;;;;;8.07;7.32;;;;;;;;;;5011114;28;20465;-82
2022/04/24 02:05:59;;;;;;;8.15;7.28;;;;;;;;;;5028630;28;20045;-83
2022/04/24 02:08:25;;;;;;;8.45;7.55;;;;;;;;;;5028201;28;20284;-82
2022/04/24 02:10:52;;;;;;;8.43;7.63;;;;;;;;;;5028630;28;20052;-82
2022/04/24 02:13:18;;;;;;;9.23;8.00;;;;;;;;;;5026404;28;20045;-82
2022/04/24 02:15:45;;;;;;;8.35;7.55;;;;;;;;;;5012655;28;20099;-82
2022/04/24 02:18:11;;;;;;;9.43;8.18;;;;;;;;;;5024632;28;20065;-82
2022/04/24 02:20:37;;;;;;;8.32;7.53;;;;;;;;;;5027377;28;20041;-82
2022/04/24 02:23:03;;;;;;;9.43;8.45;;;;;;;;;;5030416;28;20060;-82
2022/04/24 02:25:30;;;;;;;8.85;7.95;;;;;;;;;;5029399;28;20037;-82
2022/04/24 02:27:57;;;;;;;9.13;8.23;;;;;;;;;;5029934;28;20045;-82
2022/04/24 02:30:23;;;;;;;8.10;7.28;;;;;;;;;;5027670;28;20099;-82
2022/04/24 02:32:52;;;;;;;8.45;7.43;;;;;;;;;;5023219;28;20046;-82
2022/04/24 02:35:19;;;;;;;9.18;7.80;;;;;;;;;;5027411;28;20366;-82
2022/04/24 02:37:45;;;;;;;8.27;7.47;;;;;;;;;;5010141;28;20045;-82
2022/04/24 02:40:11;;;;;;;8.52;7.57;;;;;;;;;;5011149;28;20053;-82
2022/04/24 02:42:38;;;;;;;8.95;8.05;;;;;;;;;;5027422;28;20073;-82
2022/04/24 02:45:07;;;;;;;8.60;7.53;;;;;;;;;;5027221;28;20053;-81
2022/04/24 02:47:34;;;;;;;9.45;8.10;;;;;;;;;;5028747;28;20435;-82
2022/04/24 02:50:00;;;;;;;8.60;7.78;;;;;;;;;;5030400;28;20041;-83
2022/04/24 02:52:26;;;;;;;9.25;8.35;;;;;;;;;;5009610;28;20151;-82
2022/04/24 02:54:52;;;;;;;9.43;8.52;;;;;;;;;;5028435;28;20098;-83
2022/04/24 02:57:19;;;;;;;9.55;8.55;;;;;;;;;;5006619;28;20057;-82
2022/04/24 02:59:48;;;;;;;8.95;7.93;;;;;;;;;;5026598;28;20095;-82
2022/04/24 03:02:14;;;;;;;8.80;7.90;;;;;;;;;;5008259;28;20053;-82
2022/04/24 03:04:40;;;;;;;9.32;8.43;;;;;;;;;;5010325;28;20417;-82
2022/04/24 03:07:06;;;;;;;9.02;8.13;;;;;;;;;;5037423;28;20049;-82
2022/04/24 03:09:32;;;;;;;9.98;8.00;;;;;;;;;;5011546;28;20441;-82
2022/04/24 03:11:58;;;;;;;11.48;8.45;;;;;;;;;;5025896;28;20492;-82
2022/04/24 03:14:24;;;;;;;8.73;7.82;;;;;;;;;;5028503;28;21818;-82
2022/04/24 03:16:50;;;;;;;9.18;8.00;;;;;;;;;;5026468;28;20037;-82
2022/04/24 03:19:16;;;;;;;10.07;8.05;;;;;;;;;;5026717;28;20056;-81
2022/04/24 03:21:42;;;;;;;8.95;8.05;;;;;;;;;;5023361;28;20037;-83
2022/04/24 03:24:08;;;;;;;9.25;8.35;;;;;;;;;;5025412;28;20048;-82
2022/04/24 03:26:35;;;;;;;8.85;7.88;;;;;;;;;;5012815;28;20132;-82
2022/04/24 03:29:01;;;;;;;8.63;7.78;;;;;;;;;;5009464;28;20467;-82
2022/04/24 03:31:27;;;;;;;9.27;8.13;;;;;;;;;;5025417;28;20038;-82
2022/04/24 03:33:54;;;;;;;9.05;8.07;;;;;;;;;;5027706;28;20077;-82
2022/04/24 03:36:20;;;;;;;9.70;8.45;;;;;;;;;;5011175;28;20485;-82
2022/04/24 03:38:46;;;;;;;9.73;8.73;;;;;;;;;;5026512;28;20452;-82
2022/04/24 03:41:13;;;;;;;10.20;9.10;;;;;;;;;;5029893;28;20033;-83
2022/04/24 03:43:39;;;;;;;10.15;8.68;;;;;;;;;;5009412;28;20053;-83
2022/04/24 03:46:07;;;;;;;10.52;8.93;;;;;;;;;;5010619;28;20044;-84
2022/04/24 03:48:34;;;;;;;9.23;8.32;;;;;;;;;;5012002;28;20119;-82
2022/04/24 03:51:01;;;;;;;9.95;8.73;;;;;;;;;;5027878;28;20050;-83
2022/04/24 03:53:27;;;;;;;10.20;9.18;;;;;;;;;;5005964;28;20136;-83
2022/04/24 03:55:53;;;;;;;10.50;8.90;;;;;;;;;;5012427;28;20476;-82
2022/04/24 03:58:19;;;;;;;10.82;8.35;;;;;;;;;;5026681;28;20045;-83
2022/04/24 04:00:46;;;;;;;10.07;9.00;;;;;;;;;;5005910;28;20049;-82
2022/04/24 04:03:12;;;;;;;10.15;8.38;;;;;;;;;;5009783;28;20511;-82
2022/04/24 04:05:41;;;;;;;12.38;9.05;;;;;;;;;;5009451;28;20057;-82
2022/04/24 04:08:07;;;;;;;10.10;8.68;;;;;;;;;;5009392;28;20045;-82
2022/04/24 04:10:35;;;;;;;12.05;8.77;;;;;;;;;;5026963;28;20052;-82
2022/04/24 04:13:04;;;;;;;10.88;8.65;;;;;;;;;;5027871;28;20496;-82
2022/04/24 04:15:32;;;;;;;10.55;8.38;;;;;;;;;;5026230;28;20053;-82
2022/04/24 04:17:58;;;;;;;10.82;8.23;;;;;;;;;;5027112;28;20087;-82
2022/04/24 04:20:24;;;;;;;9.85;8.60;;;;;;;;;;5021575;28;20042;-81
2022/04/24 04:22:55;;;;;;;11.35;8.60;;;;;;;;;;5010258;28;20043;-82
2022/04/24 04:25:24;;;;;;;9.32;8.27;;;;;;;;;;5021343;28;20068;-81
2022/04/24 04:27:50;;;;;;;10.80;7.55;;;;;;;;;;5012026;28;20045;-82
2022/04/24 04:30:16;;;;;;;9.82;7.78;;;;;;;;;;5007828;28;20049;-82
2022/04/24 04:32:43;;;;;;;9.40;7.82;;;;;;;;;;5022807;28;20076;-82
2022/04/24 04:35:12;;;;;;;8.23;7.43;;;;;;;;;;5008272;28;20473;-82
2022/04/24 04:37:39;;;;;;;9.73;8.13;;;;;;;;;;5006474;28;20120;-82
2022/04/24 04:40:06;;;;;;;10.98;7.78;;;;;;;;;;5019868;28;20049;-82
2022/04/24 04:42:32;;;;;;;10.20;7.88;;;;;;;;;;5010061;28;20056;-81
2022/04/24 04:45:00;;;;;;;8.50;7.60;;;;;;;;;;5008341;28;20049;-81
2022/04/24 04:47:30;;;;;;;8.35;7.38;;;;;;;;;;5009269;28;20092;-82
2022/04/24 04:49:56;;;;;;;10.23;7.85;;;;;;;;;;5009995;28;20059;-82
2022/04/24 04:52:23;;;;;;;10.27;8.35;;;;;;;;;;5025354;28;20539;-82
2022/04/24 04:54:49;;;;;;;8.07;7.28;;;;;;;;;;5007965;28;20068;-83
2022/04/24 04:57:16;;;;;;;9.57;7.57;;;;;;;;;;5006801;28;20085;-82
2022/04/24 04:59:42;;;;;;;8.32;7.43;;;;;;;;;;5007810;28;20218;-82
2022/04/24 05:02:08;;;;;;;9.82;7.45;;;;;;;;;;5007147;28;20052;-82
2022/04/24 05:04:34;;;;;;;9.55;7.03;;;;;;;;;;5025168;28;20058;-82
2022/04/24 05:07:00;;;;;;;9.63;7.85;;;;;;;;;;5025880;28;20068;-82
2022/04/24 05:09:26;;;;;;;8.85;7.80;;;;;;;;;;5025304;28;20052;-82
2022/04/24 05:11:53;;;;;;;8.90;8.00;;;;;;;;;;5003836;28;20049;-81
2022/04/24 05:14:19;;;;;;;10.27;8.18;;;;;;;;;;5025882;28;20107;-82
2022/04/24 05:16:45;;;;;;;11.43;8.60;;;;;;;;;;5025190;28;20049;-82
2022/04/24 05:19:11;;;;;;;10.20;8.73;;;;;;;;;;5025966;28;20441;-82
2022/04/24 05:21:37;;;;;;;9.95;7.78;;;;;;;;;;5011892;28;20041;-81
2022/04/24 05:24:03;;;;;;;9.25;8.10;;;;;;;;;;5015078;28;20493;-82
2022/04/24 05:26:29;;;;;;;10.18;7.85;;;;;;;;;;5002200;28;20127;-81
2022/04/24 05:28:55;;;;;;;11.45;8.55;;;;;;;;;;5023441;28;20041;-82
2022/04/24 05:31:21;;;;;;;10.77;8.02;;;;;;;;;;5022966;28;20405;-82
2022/04/24 05:33:47;;;;;;;13.27;7.82;;;;;;;;;;5024815;28;20042;-82
2022/04/24 05:36:13;;;;;;;11.85;8.30;;;;;;;;;;5024795;28;20057;-81
2022/04/24 05:38:39;;;;;;;11.80;7.93;;;;;;;;;;5009258;28;20049;-81
2022/04/24 05:41:05;;;;;;;8.85;7.35;;;;;;;;;;5009776;28;20049;-82
2022/04/24 05:43:31;;;;;;;10.20;7.85;;;;;;;;;;5022602;28;20046;-81
2022/04/24 05:45:57;;;;;;;11.30;7.70;;;;;;;;;;5023029;28;20104;-82
2022/04/24 05:48:23;;;;;;;10.93;8.02;;;;;;;;;;5026315;28;20053;-81
2022/04/24 05:50:50;;;;;;;11.57;8.40;;;;;;;;;;5007056;28;20053;-82
2022/04/24 05:53:16;;;;;;;9.65;7.90;;;;;;;;;;5007371;28;20045;-82
2022/04/24 05:55:41;;;;;;;11.98;8.68;;;;;;;;;;5023212;28;20508;-82
2022/04/24 05:58:08;;;;;;;9.35;7.07;;;;;;;;;;5008841;28;20045;-82
2022/04/24 06:00:36;;;;;;;10.02;6.82;;;;;;;;;;5024017;28;20053;-81
2022/04/24 06:03:02;;;;;;;7.72;6.75;;;;;;;;;;5023537;28;20049;-82
2022/04/24 06:05:28;;;;;;;8.07;7.13;;;;;;;;;;5006415;28;20053;-82
2022/04/24 06:07:55;;;;;;;9.55;7.57;;;;;;;;;;5027281;28;20053;-82
2022/04/24 06:10:21;;;;;;;10.38;7.45;;;;;;;;;;5026066;28;20053;-82
2022/04/24 06:12:48;;;;;;;8.63;7.22;;;;;;;;;;5027979;28;20033;-82
2022/04/24 06:15:20;;;;;;;7.80;6.90;;;;;;;;;;5012131;28;20049;-82
2022/04/24 06:17:47;;;;;;;8.52;7.03;;;;;;;;;;5010539;28;20056;-82
2022/04/24 06:20:13;;;;;;;9.88;7.78;;;;;;;;;;5026078;28;20041;-81
2022/04/24 06:22:52;;;;;;;9.18;7.28;;;;;;;;;;5011476;28;20389;-81
2022/04/24 06:25:22;;;;;;;7.55;6.47;;;;;;;;;;5007022;28;20048;-82
2022/04/24 06:27:48;;;;;;;8.48;6.57;;;;;;;;;;5010626;28;20038;-82
2022/04/24 06:30:16;;;;;;;7.63;6.82;;;;;;;;;;5026889;28;20369;-82
2022/04/24 06:32:42;;;;;;;7.22;6.53;;;;;;;;;;5027182;28;20103;-82
2022/04/24 06:35:09;;;;;;;8.75;7.35;;;;;;;;;;5024443;28;20096;-83
2022/04/24 06:37:39;;;;;;;7.80;6.68;;;;;;;;;;5028927;28;20100;-82
2022/04/24 06:40:06;;;;;;;9.63;6.47;;;;;;;;;;5011480;28;20071;-82
2022/04/24 06:42:32;;;;;;;7.75;6.90;;;;;;;;;;5007658;28;20056;-83
2022/04/24 06:44:58;;;;;;;7.35;6.47;;;;;;;;;;5028596;28;20072;-82
2022/04/24 06:47:27;;;;;;;11.50;6.70;;;;;;;;;;5027256;28;20088;-82
2022/04/24 06:49:53;;;;;;;7.20;6.22;;;;;;;;;;5010918;28;20041;-81
2022/04/24 06:52:19;;;;;;;8.80;6.50;;;;;;;;;;5027436;28;20148;-82
2022/04/24 06:54:45;;;;;;;9.15;6.25;;;;;;;;;;5026791;28;20489;-82
2022/04/24 06:57:11;;;;;;;8.88;6.70;;;;;;;;;;5008193;28;20052;-82
2022/04/24 06:59:37;;;;;;;7.95;5.95;;;;;;;;;;5025908;28;20133;-82
2022/04/24 07:02:03;;;;;;;6.38;5.68;;;;;;;;;;5009259;28;20709;-83
2022/04/24 07:04:29;;;;;;;7.82;5.43;;;;;;;;;;5013170;28;20041;-83
2022/04/24 07:06:55;;;;;;;7.50;5.65;;;;;;;;;;5008883;28;20056;-83
2022/04/24 07:09:21;;;;;;;6.97;5.28;;;;;;;;;;5010513;28;20046;-82
2022/04/24 07:11:47;;;;;;;6.82;5.18;;;;;;;;;;5027295;28;20404;-82
2022/04/24 07:14:13;;;;;;;5.70;4.78;;;;;;;;;;5009093;28;20041;-82
2022/04/24 07:16:39;;;;;;;6.32;5.30;;;;;;;;;;5004053;28;20519;-82
2022/04/24 07:19:05;;;;;;;6.72;4.60;;;;;;;;;;5027624;28;20488;-82
2022/04/24 07:21:31;;;;;;;5.05;4.53;;;;;;;;;;5028876;28;20044;-82
2022/04/24 07:23:57;;;;;;;6.20;3.92;;;;;;;;;;5011013;28;20049;-83
2022/04/24 07:26:23;;;;;;;4.60;4.10;;;;;;;;;;5027560;28;20040;-82
2022/04/24 07:28:49;;;;;;;5.30;4.07;;;;;;;;;;5003911;28;20052;-83
2022/04/24 07:31:19;;;;;;;5.38;4.20;;;;;;;;;;5025814;28;20099;-82
2022/04/24 07:33:45;;;;;;;5.18;4.30;;;;;;;;;;5008912;28;20499;-82
2022/04/24 07:36:11;;;;;;;6.65;3.67;;;;;;;;;;5025214;28;20056;-82
2022/04/24 07:38:37;;;;;;;3.60;3.30;;;;;;;;;;5029247;28;20546;-81
2022/04/24 07:41:04;;;;;;;5.32;3.60;;;;;;;;;;5029719;28;20046;-82
2022/04/24 07:43:30;;;;;;;5.22;3.55;;;;;;;;;;5022628;28;20591;-82
2022/04/24 07:45:56;;;;;;;7.35;3.38;;;;;;;;;;5001802;28;20116;-82
2022/04/24 07:48:22;;;;;;;6.38;3.40;;;;;;;;;;5022918;28;20512;-81
2022/04/24 07:50:52;;;;;;;4.05;3.30;;;;;;;;;;5003763;28;20043;-82
2022/04/24 07:53:18;;;;;;;5.63;3.80;;;;;;;;;;5007993;28;20082;-81
2022/04/24 07:55:45;;;;;;;4.40;3.60;;;;;;;;;;5023279;28;20556;-82
2022/04/24 07:58:11;;;;;;;4.97;3.58;;;;;;;;;;5009160;28;20453;-82
2022/04/24 08:00:37;;;;;;;5.72;3.67;;;;;;;;;;5024343;28;20052;-82
2022/04/24 08:03:07;;;;;;;4.70;3.45;;;;;;;;;;5009378;28;20580;-83
2022/04/24 08:05:40;;;;;;;4.20;3.50;;;;;;;;;;5028302;28;20052;-81
2022/04/24 08:08:17;;;;;;;5.55;3.55;;;;;;;;;;5010346;28;20087;-83
2022/04/24 08:10:44;;;;;;;5.22;3.75;;;;;;;;;;5029203;28;20045;-84
2022/04/24 08:13:11;;;;;;;5.07;3.35;;;;;;;;;;5011842;28;20063;-85
2022/04/24 08:15:37;;;;;;;3.88;3.30;;;;;;;;;;5026268;28;20120;-84
2022/04/24 08:18:04;;;;;;;4.25;3.00;;;;;;;;;;5027848;28;20037;-84
2022/04/24 08:20:31;;;;;;;3.70;3.00;;;;;;;;;;5024371;28;20136;-83
2022/04/24 08:22:59;;;;;;;4.88;2.88;;;;;;;;;;5000393;28;20064;-84
2022/04/24 08:25:27;;;;;;;3.55;2.75;;;;;;;;;;5010458;28;20056;-82
2022/04/24 08:27:54;;;;;;;4.07;2.85;;;;;;;;;;5030262;28;20120;-84
2022/04/24 08:30:21;;;;;;;4.68;2.95;;;;;;;;;;5024871;28;20497;-84
2022/04/24 08:32:48;;;;;;;3.17;2.50;;;;;;;;;;5026253;28;20033;-82
2022/04/24 08:35:15;;;;;;;2.83;2.38;;;;;;;;;;5008626;28;20492;-83
2022/04/24 08:37:41;;;;;;;3.55;2.55;;;;;;;;;;5022602;28;20098;-83
2022/04/24 08:40:08;;;;;;;3.05;2.70;;;;;;;;;;5002379;28;20045;-83
2022/04/24 08:42:34;;;;;;;3.83;2.90;;;;;;;;;;5012184;28;20045;-84
2022/04/24 08:45:01;;;;;;;3.95;3.00;;;;;;;;;;5029511;28;20045;-85
2022/04/24 08:47:27;;;;;;;3.65;2.70;;;;;;;;;;5007510;28;20132;-83
2022/04/24 08:49:54;;;;;;;4.57;2.60;;;;;;;;;;5015447;28;20084;-83
2022/04/24 08:52:21;;;;;;;4.78;2.88;;;;;;;;;;5021186;28;20037;-83
2022/04/24 08:54:47;;;;;;;5.20;2.75;;;;;;;;;;5000717;28;20377;-84
2022/04/24 08:57:13;;;;;;;3.38;2.80;;;;;;;;;;5024488;28;20543;-82
2022/04/24 08:59:39;;;;;;;3.80;2.70;;;;;;;;;;5029593;28;20049;-82
2022/04/24 09:02:06;;;;;;;3.10;2.80;;;;;;;;;;5029753;28;20041;-82
2022/04/24 09:04:36;;;;;;;3.70;2.63;;;;;;;;;;5027719;28;20516;-84
2022/04/24 09:07:04;;;;;;;3.92;2.58;;;;;;;;;;5026848;28;20041;-84
2022/04/24 09:09:34;;;;;;;6.30;2.90;;;;;;;;;;5007605;28;20065;-83
2022/04/24 09:12:06;;;;;;;3.58;2.67;;;;;;;;;;5014438;28;20041;-83
2022/04/24 09:14:32;;;;;;;3.57;2.60;;;;;;;;;;5002022;28;20051;-84
2022/04/24 09:17:01;;;;;;;3.95;2.60;;;;;;;;;;5000398;28;20387;-83
2022/04/24 09:19:27;;;;;;;3.85;2.78;;;;;;;;;;5011942;28;20037;-85
2022/04/24 09:21:54;;;;;;;4.45;3.10;;;;;;;;;;5012142;28;20100;-83
2022/04/24 09:24:20;;;;;;;5.57;3.00;;;;;;;;;;5029426;28;20042;-83
2022/04/24 09:26:50;;;;;;;4.75;3.30;;;;;;;;;;5009045;28;20098;-83
2022/04/24 09:29:16;;;;;;;3.72;3.13;;;;;;;;;;5005419;28;20053;-83
2022/04/24 09:31:49;;;;;;;5.32;3.00;;;;;;;;;;5024776;28;20046;-84
2022/04/24 09:34:16;;;;;;;5.97;2.85;;;;;;;;;;5004695;28;20037;-83
2022/04/24 09:36:43;;;;;;;6.40;3.20;;;;;;;;;;5011727;28;20481;-84
2022/04/24 09:39:09;;;;;;;4.65;3.47;;;;;;;;;;5011086;28;20050;-83
2022/04/24 09:41:35;;;;;;;5.53;3.17;;;;;;;;;;5022188;28;20042;-87
2022/04/24 09:44:10;;;;;;;6.22;3.47;;;;;;;;;;5004001;28;20152;-82
2022/04/24 09:46:36;;;;;;;3.88;3.10;;;;;;;;;;5031368;28;20042;-82
2022/04/24 09:49:03;;;;;;;5.70;3.00;;;;;;;;;;5030407;28;20114;-82
2022/04/24 09:51:32;;;;;;;4.22;2.47;;;;;;;;;;5032343;28;20041;-82
2022/04/24 09:54:00;;;;;;;4.60;2.72;;;;;;;;;;5019784;28;20517;-83
2022/04/24 09:56:27;;;;;;;4.45;3.10;;;;;;;;;;5011980;28;20053;-82
2022/04/24 09:58:53;;;;;;;4.22;2.50;;;;;;;;;;4998708;28;20050;-82
2022/04/24 10:01:22;;;;;;;2.85;2.55;;;;;;;;;;5002386;28;20135;-82
2022/04/24 10:03:49;;;;;;;5.63;2.90;;;;;;;;;;5009897;28;20434;-82
2022/04/24 10:06:17;;;;;;;6.53;2.80;;;;;;;;;;5031537;28;20049;-83
2022/04/24 10:08:43;;;;;;;3.53;2.60;;;;;;;;;;5031413;28;20038;-81
2022/04/24 10:11:09;;;;;;;4.88;2.80;;;;;;;;;;5026494;28;20042;-83
2022/04/24 10:13:37;;;;;;;5.32;3.00;;;;;;;;;;5032379;28;20120;-82
2022/04/24 10:16:15;;;;;;;4.28;2.63;;;;;;;;;;5026553;28;20042;-82
2022/04/24 10:18:41;;;;;;;4.80;2.80;;;;;;;;;;5028398;28;20320;-82
2022/04/24 10:21:07;;;;;;;8.82;3.30;;;;;;;;;;5040307;28;20358;-81
2022/04/24 10:23:34;;;;;;;7.78;3.17;;;;;;;;;;5012211;28;20493;-82
2022/04/24 10:26:02;;;;;;;6.95;3.15;;;;;;;;;;5013285;28;20041;-90
2022/04/24 10:28:38;;;;;;;5.80;3.65;;;;;;;;;;5008423;28;20049;-84
2022/04/24 10:31:05;;;;;;;5.00;2.80;;;;;;;;;;5015668;28;20053;-79
2022/04/24 10:33:32;;;;;;;6.85;3.08;;;;;;;;;;5008680;28;20054;-79
2022/04/24 10:35:59;;;;;;;5.75;3.05;;;;;;;;;;5026557;28;20060;-79
2022/04/24 10:38:26;;;;;;;5.97;3.72;;;;;;;;;;5030746;28;20033;-80
2022/04/24 10:41:06;;;;;;;4.97;3.47;;;;;;;;;;5002432;28;20053;-79
2022/04/24 10:43:40;;;;;;;6.15;3.30;;;;;;;;;;5015463;28;20050;-83
2022/04/24 10:46:35;;;;;;;7.28;3.65;;;;;;;;;;5027219;28;20038;-81
2022/04/24 10:49:11;;;;;;;5.55;3.10;;;;;;;;;;5017781;28;20049;-81
2022/04/24 10:51:39;;;;;;;8.02;3.45;;;;;;;;;;5027113;28;20092;-81
2022/04/24 10:54:12;;;;;;;6.25;3.40;;;;;;;;;;5010802;28;20095;-81
2022/04/24 10:56:38;;;;;;;7.07;2.97;;;;;;;;;;5011180;28;20191;-81
2022/04/24 10:59:10;;;;;;;4.93;3.17;;;;;;;;;;5012133;28;20461;-81
2022/04/24 11:01:37;;;;;;;5.88;3.05;;;;;;;;;;5010409;28;20147;-81
2022/04/24 11:04:07;;;;;;;6.15;3.20;;;;;;;;;;5011291;28;20044;-81
2022/04/24 11:06:33;;;;;;;3.55;3.13;;;;;;;;;;5029727;28;20060;-81
2022/04/24 11:09:12;;;;;;;5.20;3.35;;;;;;;;;;5026941;28;20128;-81
2022/04/24 11:12:07;;;;;;;8.95;3.45;;;;;;;;;;5009253;28;20130;-81
2022/04/24 11:14:34;;;;;;;7.15;3.35;;;;;;;;;;5009983;28;20081;-81
2022/04/24 11:17:01;;;;;;;6.68;3.13;;;;;;;;;;5027222;28;20045;-80
2022/04/24 11:19:28;;;;;;;4.50;3.22;;;;;;;;;;5028336;28;20041;-80
2022/04/24 11:22:15;;;;;;;5.20;3.30;;;;;;;;;;5012132;28;20064;-80
2022/04/24 11:24:41;;;;;;;4.63;3.45;;;;;;;;;;5019799;28;20073;-81
2022/04/24 11:27:11;;;;;;;5.30;3.58;;;;;;;;;;5013046;28;20081;-81
2022/04/24 11:29:37;;;;;;;7.60;3.75;;;;;;;;;;5006643;28;20107;-80
2022/04/24 11:32:07;;;;;;;6.30;3.53;;;;;;;;;;5011674;28;20080;-82
2022/04/24 11:34:34;;;;;;;7.32;3.55;;;;;;;;;;5025921;28;20091;-80
2022/04/24 11:37:00;;;;;;;5.30;3.20;;;;;;;;;;5010199;28;20041;-81
2022/04/24 11:39:26;;;;;;;6.03;3.55;;;;;;;;;;5009424;28;20135;-81
2022/04/24 11:41:58;;;;;;;7.13;3.60;;;;;;;;;;5008768;28;20072;-80
2022/04/24 11:50:13;;;;;;;7.03;4.20;;;;;;;;;;5019339;28;20202;-81
2022/04/24 11:52:40;;;;;;;6.32;3.97;;;;;;;;;;5019768;28;20072;-82
2022/04/24 11:55:08;;;;;;;5.22;3.85;;;;;;;;;;5015878;28;20046;-81
2022/04/24 11:57:34;;;;;;;5.97;3.78;;;;;;;;;;5027467;28;20119;-81
2022/04/24 12:00:03;;;;;;;5.68;3.95;;;;;;;;;;5029084;28;20041;-74
2022/04/24 12:02:29;;;;;;;7.10;4.25;;;;;;;;;;5017343;28;20077;-81
2022/04/24 12:04:56;;;;;;;6.93;4.07;;;;;;;;;;5019499;28;20084;-81
2022/04/24 12:07:31;;;;;;;7.93;4.40;;;;;;;;;;4987304;28;20033;-81
2022/04/24 12:09:58;;;;;;;10.48;5.10;;;;;;;;;;5011272;28;20049;-81
2022/04/24 12:12:24;;;;;;;6.68;4.88;;;;;;;;;;5020119;28;20092;-81
2022/04/24 12:14:53;;;;;;;7.07;4.68;;;;;;;;;;5008680;28;20053;-80
2022/04/24 12:17:20;;;;;;;6.47;4.78;;;;;;;;;;5024127;28;20436;-81
2022/04/24 12:19:51;;;;;;;6.45;4.32;;;;;;;;;;5028695;28;20517;-82
2022/04/24 12:22:17;;;;;;;7.32;4.72;;;;;;;;;;5021002;28;20068;-84
2022/04/24 12:24:44;;;;;;;7.30;4.85;;;;;;;;;;5025088;28;20075;-82
2022/04/24 12:27:12;;;;;;;5.38;4.22;;;;;;;;;;5007700;28;21322;-81
2022/04/24 12:29:48;;;;;;;5.22;4.38;;;;;;;;;;5012554;28;20046;-82
2022/04/24 12:32:15;;;;;;;4.75;4.20;;;;;;;;;;5012520;28;20088;-81
2022/04/24 12:34:41;;;;;;;7.65;4.97;;;;;;;;;;5022120;28;20104;-82
2022/04/24 12:37:08;;;;;;;7.07;4.45;;;;;;;;;;5025095;28;20088;-84
2022/04/24 12:39:34;;;;;;;7.78;4.78;;;;;;;;;;5026043;28;20392;-81
2022/04/24 12:42:10;;;;;;;7.63;4.85;;;;;;;;;;5009704;28;20087;-82
2022/04/24 12:44:36;;;;;;;8.48;4.40;;;;;;;;;;5010672;28;20037;-80
2022/04/24 12:47:03;;;;;;;7.10;5.25;;;;;;;;;;5027682;28;20145;-81
2022/04/24 12:49:32;;;;;;;10.40;4.95;;;;;;;;;;5013843;28;20516;-81
2022/04/24 12:51:59;;;;;;;4.90;4.32;;;;;;;;;;5011861;28;20103;-82
2022/04/24 12:54:25;;;;;;;5.43;4.65;;;;;;;;;;5011753;28;20513;-81
2022/04/24 12:56:51;;;;;;;7.13;4.65;;;;;;;;;;4999643;28;20077;-81
2022/04/24 12:59:17;;;;;;;6.00;4.45;;;;;;;;;;5013720;28;20049;-81
2022/04/24 13:01:44;;;;;;;7.88;4.60;;;;;;;;;;5013404;28;20046;-81
2022/04/24 13:04:10;;;;;;;4.90;4.40;;;;;;;;;;5032525;28;20053;-81
2022/04/24 13:06:36;;;;;;;6.13;4.63;;;;;;;;;;5012522;28;20432;-81
2022/04/24 13:09:03;;;;;;;5.50;4.05;;;;;;;;;;5031284;28;20077;-81
2022/04/24 13:11:29;;;;;;;5.30;4.50;;;;;;;;;;5021311;28;20050;-81
2022/04/24 13:13:55;;;;;;;7.05;4.75;;;;;;;;;;5023791;28;20054;-83
2022/04/24 13:19:12;;;;;;;6.88;4.28;;;;;;;;;;5011593;28;20096;-81
2022/04/24 13:21:38;;;;;;;7.38;4.53;;;;;;;;;;5013510;28;20062;-80
2022/04/24 13:24:04;;;;;;;6.03;4.25;;;;;;;;;;5019077;28;20060;-81
2022/04/24 13:26:31;;;;;;;4.53;3.95;;;;;;;;;;5035613;28;20041;-80
2022/04/24 13:28:56;;;;;;;6.85;4.30;;;;;;;;;;5011382;28;20069;-81
2022/04/24 13:31:23;;;;;;;7.95;4.25;;;;;;;;;;5014738;28;20085;-81
2022/04/24 13:33:48;;;;;;;6.82;4.30;;;;;;;;;;5015583;28;20116;-80
2022/04/24 13:36:15;;;;;;;5.38;4.35;;;;;;;;;;5017373;28;20619;-80
2022/04/24 13:38:44;;;;;;;6.32;4.50;;;;;;;;;;5016683;28;20131;-80
2022/04/24 13:41:13;;;;;;;5.35;4.85;;;;;;;;;;5032795;28;20041;-80
2022/04/24 13:43:39;;;;;;;8.23;4.75;;;;;;;;;;5031779;28;20041;-81
2022/04/24 13:46:05;;;;;;;6.43;4.43;;;;;;;;;;5014269;28;20136;-80
2022/04/24 13:48:32;;;;;;;7.25;4.50;;;;;;;;;;5024315;28;20045;-81
2022/04/24 13:50:59;;;;;;;4.60;4.18;;;;;;;;;;5011730;28;20056;-80
2022/04/24 13:53:26;;;;;;;5.07;4.57;;;;;;;;;;5017372;28;20524;-80
2022/04/24 13:55:52;;;;;;;8.07;4.63;;;;;;;;;;5023343;28;20145;-80
2022/04/24 13:58:20;;;;;;;4.45;4.05;;;;;;;;;;5030275;28;20073;-85
2022/04/24 14:00:46;;;;;;;4.97;4.10;;;;;;;;;;5013888;28;20129;-82
2022/04/24 14:03:15;;;;;;;4.93;4.03;;;;;;;;;;5013564;28;20132;-80
2022/04/24 14:05:42;;;;;;;8.48;4.30;;;;;;;;;;5011860;28;20096;-82
2022/04/24 14:08:19;;;;;;;5.18;3.95;;;;;;;;;;5030379;28;20083;-87
2022/04/24 14:10:45;;;;;;;5.10;4.03;;;;;;;;;;5034293;28;20049;-79
2022/04/24 14:13:11;;;;;;;5.72;4.22;;;;;;;;;;5012980;28;20512;-84
2022/04/24 14:15:37;;;;;;;4.68;3.80;;;;;;;;;;5026421;28;20049;-82
2022/04/24 14:18:03;;;;;;;6.43;3.88;;;;;;;;;;5011767;28;20077;-78
2022/04/24 14:20:29;;;;;;;4.45;3.55;;;;;;;;;;5018357;28;20488;-80
2022/04/24 14:22:58;;;;;;;5.88;3.35;;;;;;;;;;5008061;28;20051;-83
2022/04/24 14:25:25;;;;;;;4.97;2.90;;;;;;;;;;5019798;28;20056;-82
2022/04/24 14:27:51;;;;;;;6.47;3.50;;;;;;;;;;5032903;28;20125;-88
2022/04/24 14:30:17;;;;;;;7.25;2.92;;;;;;;;;;5019154;28;20444;-83
2022/04/24 14:32:43;;;;;;;5.38;2.90;;;;;;;;;;5027486;28;20041;-86
2022/04/24 14:35:12;;;;;;;3.72;3.10;;;;;;;;;;5027317;28;20049;-84
2022/04/24 14:37:38;;;;;;;4.57;3.10;;;;;;;;;;5023163;28;20049;-82
2022/04/24 14:40:05;;;;;;;3.65;2.92;;;;;;;;;;5026976;28;20680;-81
2022/04/24 14:42:34;;;;;;;4.72;3.28;;;;;;;;;;5031235;28;20060;-80
2022/04/24 14:45:00;;;;;;;4.28;2.95;;;;;;;;;;5027039;28;20152;-81
2022/04/24 14:55:46;;;;;;;4.47;2.80;;;;;;;;;;5025615;28;20045;-86
2022/04/24 14:58:17;;;;;;;4.43;3.00;;;;;;;;;;5023280;28;20049;-85